sensor_id;sensor_type;location;lat;lon;timestamp;P1;durP1;ratioP1;P2;durP2;ratioP2
73154;SDS011;61364;52.418;7.382;2022-10-16T00:01:14;2.65;;;2.65;;
73154;SDS011;61364;52.418;7.382;2022-10-16T00:03:41;2.80;;;2.80;;
73154;SDS011;61364;52.418;7.382;2022-10-16T00:06:08;2.62;;;2.62;;
73154;SDS011;61364;52.418;7.382;2022-10-16T00:08:34;2.54;;;2.54;;
73154;SDS011;61364;52.418;7.382;2022-10-16T00:11:02;2.54;;;2.54;;
73154;SDS011;61364;52.418;7.382;2022-10-16T00:13:28;2.42;;;2.42;;
73154;SDS011;61364;52.418;7.382;2022-10-16T00:15:55;2.32;;;2.32;;
73154;SDS011;61364;52.418;7.382;2022-10-16T00:18:21;2.44;;;2.44;;
73154;SDS011;61364;52.418;7.382;2022-10-16T00:20:49;2.63;;;2.63;;
73154;SDS011;61364;52.418;7.382;2022-10-16T00:23:14;2.55;;;2.55;;
73154;SDS011;61364;52.418;7.382;2022-10-16T00:25:40;2.48;;;2.48;;
73154;SDS011;61364;52.418;7.382;2022-10-16T00:28:05;2.61;;;2.61;;
73154;SDS011;61364;52.418;7.382;2022-10-16T00:30:31;2.35;;;2.35;;
73154;SDS011;61364;52.418;7.382;2022-10-16T00:32:56;2.64;;;2.64;;
73154;SDS011;61364;52.418;7.382;2022-10-16T00:35:22;2.61;;;2.61;;
73154;SDS011;61364;52.418;7.382;2022-10-16T00:37:48;2.58;;;2.58;;
73154;SDS011;61364;52.418;7.382;2022-10-16T00:40:13;2.58;;;2.58;;
73154;SDS011;61364;52.418;7.382;2022-10-16T00:42:39;2.37;;;2.37;;
73154;SDS011;61364;52.418;7.382;2022-10-16T00:45:05;2.47;;;2.47;;
73154;SDS011;61364;52.418;7.382;2022-10-16T00:47:35;2.46;;;2.46;;
73154;SDS011;61364;52.418;7.382;2022-10-16T00:52:35;2.47;;;2.47;;
73154;SDS011;61364;52.418;7.382;2022-10-16T00:55:02;2.02;;;2.02;;
73154;SDS011;61364;52.418;7.382;2022-10-16T00:57:29;2.47;;;2.47;;
73154;SDS011;61364;52.418;7.382;2022-10-16T00:59:56;2.17;;;2.17;;
73154;SDS011;61364;52.418;7.382;2022-10-16T01:02:22;2.46;;;2.46;;
73154;SDS011;61364;52.418;7.382;2022-10-16T01:04:49;2.46;;;2.46;;
73154;SDS011;61364;52.418;7.382;2022-10-16T01:10:07;2.13;;;2.13;;
73154;SDS011;61364;52.418;7.382;2022-10-16T01:15:52;2.49;;;2.49;;
73154;SDS011;61364;52.418;7.382;2022-10-16T01:18:00;2.27;;;2.27;;
73154;SDS011;61364;52.418;7.382;2022-10-16T01:23:02;2.33;;;2.33;;
73154;SDS011;61364;52.418;7.382;2022-10-16T01:25:36;2.28;;;2.28;;
73154;SDS011;61364;52.418;7.382;2022-10-16T01:28:05;2.31;;;2.31;;
73154;SDS011;61364;52.418;7.382;2022-10-16T01:30:35;2.45;;;2.45;;
73154;SDS011;61364;52.418;7.382;2022-10-16T01:35:31;2.61;;;2.61;;
73154;SDS011;61364;52.418;7.382;2022-10-16T01:38:03;2.66;;;2.66;;
73154;SDS011;61364;52.418;7.382;2022-10-16T01:40:31;2.53;;;2.53;;
73154;SDS011;61364;52.418;7.382;2022-10-16T01:43:00;2.45;;;2.45;;
73154;SDS011;61364;52.418;7.382;2022-10-16T01:45:29;2.76;;;2.76;;
73154;SDS011;61364;52.418;7.382;2022-10-16T01:47:57;2.56;;;2.56;;
73154;SDS011;61364;52.418;7.382;2022-10-16T01:50:25;2.82;;;2.82;;
73154;SDS011;61364;52.418;7.382;2022-10-16T01:52:52;2.73;;;2.73;;
73154;SDS011;61364;52.418;7.382;2022-10-16T01:55:25;2.65;;;2.65;;
73154;SDS011;61364;52.418;7.382;2022-10-16T01:57:55;2.98;;;2.98;;
73154;SDS011;61364;52.418;7.382;2022-10-16T02:00:24;2.92;;;2.92;;
73154;SDS011;61364;52.418;7.382;2022-10-16T02:02:51;2.91;;;2.91;;
73154;SDS011;61364;52.418;7.382;2022-10-16T02:07:49;3.07;;;3.07;;
73154;SDS011;61364;52.418;7.382;2022-10-16T02:10:14;3.29;;;3.29;;
73154;SDS011;61364;52.418;7.382;2022-10-16T02:12:41;3.18;;;3.18;;
73154;SDS011;61364;52.418;7.382;2022-10-16T02:15:10;3.11;;;3.11;;
73154;SDS011;61364;52.418;7.382;2022-10-16T02:17:36;3.25;;;3.25;;
73154;SDS011;61364;52.418;7.382;2022-10-16T02:20:02;3.37;;;3.37;;
73154;SDS011;61364;52.418;7.382;2022-10-16T02:22:36;3.34;;;3.34;;
73154;SDS011;61364;52.418;7.382;2022-10-16T02:25:10;3.59;;;3.59;;
73154;SDS011;61364;52.418;7.382;2022-10-16T02:27:43;3.59;;;3.59;;
73154;SDS011;61364;52.418;7.382;2022-10-16T02:30:23;3.41;;;3.41;;
73154;SDS011;61364;52.418;7.382;2022-10-16T02:32:51;3.53;;;3.53;;
73154;SDS011;61364;52.418;7.382;2022-10-16T02:35:19;3.59;;;3.59;;
73154;SDS011;61364;52.418;7.382;2022-10-16T02:37:48;3.72;;;3.72;;
73154;SDS011;61364;52.418;7.382;2022-10-16T02:40:15;4.05;;;4.05;;
73154;SDS011;61364;52.418;7.382;2022-10-16T02:42:42;3.86;;;3.86;;
73154;SDS011;61364;52.418;7.382;2022-10-16T02:45:08;4.08;;;4.08;;
73154;SDS011;61364;52.418;7.382;2022-10-16T02:47:35;4.45;;;4.45;;
73154;SDS011;61364;52.418;7.382;2022-10-16T02:50:00;4.87;;;4.87;;
73154;SDS011;61364;52.418;7.382;2022-10-16T02:52:26;4.77;;;4.77;;
73154;SDS011;61364;52.418;7.382;2022-10-16T02:54:51;4.85;;;4.85;;
73154;SDS011;61364;52.418;7.382;2022-10-16T02:57:17;4.97;;;4.97;;
73154;SDS011;61364;52.418;7.382;2022-10-16T02:59:43;4.94;;;4.94;;
73154;SDS011;61364;52.418;7.382;2022-10-16T03:02:08;5.37;;;5.37;;
73154;SDS011;61364;52.418;7.382;2022-10-16T03:04:34;5.37;;;5.37;;
73154;SDS011;61364;52.418;7.382;2022-10-16T03:06:59;5.79;;;5.79;;
73154;SDS011;61364;52.418;7.382;2022-10-16T03:09:25;5.47;;;5.47;;
73154;SDS011;61364;52.418;7.382;2022-10-16T03:11:50;5.54;;;5.54;;
73154;SDS011;61364;52.418;7.382;2022-10-16T03:14:17;5.88;;;5.88;;
73154;SDS011;61364;52.418;7.382;2022-10-16T03:16:43;6.27;;;6.27;;
73154;SDS011;61364;52.418;7.382;2022-10-16T03:19:08;6.24;;;6.24;;
73154;SDS011;61364;52.418;7.382;2022-10-16T03:21:34;7.70;;;7.70;;
73154;SDS011;61364;52.418;7.382;2022-10-16T03:23:59;7.99;;;7.99;;
73154;SDS011;61364;52.418;7.382;2022-10-16T03:26:25;7.84;;;7.84;;
73154;SDS011;61364;52.418;7.382;2022-10-16T03:28:50;7.56;;;7.56;;
73154;SDS011;61364;52.418;7.382;2022-10-16T03:31:16;7.13;;;7.13;;
73154;SDS011;61364;52.418;7.382;2022-10-16T03:33:41;7.52;;;7.52;;
73154;SDS011;61364;52.418;7.382;2022-10-16T03:36:06;7.11;;;7.11;;
73154;SDS011;61364;52.418;7.382;2022-10-16T03:38:32;6.79;;;6.79;;
73154;SDS011;61364;52.418;7.382;2022-10-16T03:40:57;6.60;;;6.60;;
73154;SDS011;61364;52.418;7.382;2022-10-16T03:43:23;6.62;;;6.62;;
73154;SDS011;61364;52.418;7.382;2022-10-16T03:45:51;6.60;;;6.60;;
73154;SDS011;61364;52.418;7.382;2022-10-16T03:48:20;6.91;;;6.91;;
73154;SDS011;61364;52.418;7.382;2022-10-16T03:50:45;6.38;;;6.38;;
73154;SDS011;61364;52.418;7.382;2022-10-16T03:53:13;5.93;;;5.93;;
73154;SDS011;61364;52.418;7.382;2022-10-16T03:55:43;6.34;;;6.34;;
73154;SDS011;61364;52.418;7.382;2022-10-16T03:58:09;6.56;;;6.56;;
73154;SDS011;61364;52.418;7.382;2022-10-16T04:00:35;6.16;;;6.16;;
73154;SDS011;61364;52.418;7.382;2022-10-16T04:03:00;6.00;;;6.00;;
73154;SDS011;61364;52.418;7.382;2022-10-16T04:05:26;6.26;;;6.26;;
73154;SDS011;61364;52.418;7.382;2022-10-16T04:07:52;6.33;;;6.33;;
73154;SDS011;61364;52.418;7.382;2022-10-16T04:10:18;6.03;;;6.03;;
73154;SDS011;61364;52.418;7.382;2022-10-16T04:12:44;6.26;;;6.26;;
73154;SDS011;61364;52.418;7.382;2022-10-16T04:15:10;6.21;;;6.21;;
73154;SDS011;61364;52.418;7.382;2022-10-16T04:17:35;5.83;;;5.83;;
73154;SDS011;61364;52.418;7.382;2022-10-16T04:20:01;5.84;;;5.84;;
73154;SDS011;61364;52.418;7.382;2022-10-16T04:22:26;6.36;;;6.36;;
73154;SDS011;61364;52.418;7.382;2022-10-16T04:24:52;6.55;;;6.55;;
73154;SDS011;61364;52.418;7.382;2022-10-16T04:27:17;6.72;;;6.72;;
73154;SDS011;61364;52.418;7.382;2022-10-16T04:29:43;6.58;;;6.58;;
73154;SDS011;61364;52.418;7.382;2022-10-16T04:32:08;6.44;;;6.44;;
73154;SDS011;61364;52.418;7.382;2022-10-16T04:34:34;6.34;;;6.34;;
73154;SDS011;61364;52.418;7.382;2022-10-16T04:37:00;5.74;;;5.74;;
73154;SDS011;61364;52.418;7.382;2022-10-16T04:39:26;5.74;;;5.74;;
73154;SDS011;61364;52.418;7.382;2022-10-16T04:41:51;5.45;;;5.45;;
73154;SDS011;61364;52.418;7.382;2022-10-16T04:44:17;5.52;;;5.52;;
73154;SDS011;61364;52.418;7.382;2022-10-16T04:46:42;5.79;;;5.79;;
73154;SDS011;61364;52.418;7.382;2022-10-16T04:49:10;5.53;;;5.53;;
73154;SDS011;61364;52.418;7.382;2022-10-16T04:51:35;5.80;;;5.80;;
73154;SDS011;61364;52.418;7.382;2022-10-16T04:54:01;6.02;;;6.02;;
73154;SDS011;61364;52.418;7.382;2022-10-16T04:56:27;5.64;;;5.64;;
73154;SDS011;61364;52.418;7.382;2022-10-16T04:58:52;6.16;;;6.16;;
73154;SDS011;61364;52.418;7.382;2022-10-16T05:01:18;5.83;;;5.83;;
73154;SDS011;61364;52.418;7.382;2022-10-16T05:03:44;5.72;;;5.72;;
73154;SDS011;61364;52.418;7.382;2022-10-16T05:06:09;5.49;;;5.49;;
73154;SDS011;61364;52.418;7.382;2022-10-16T05:08:35;5.42;;;5.42;;
73154;SDS011;61364;52.418;7.382;2022-10-16T05:11:00;5.34;;;5.34;;
73154;SDS011;61364;52.418;7.382;2022-10-16T05:13:26;4.68;;;4.68;;
73154;SDS011;61364;52.418;7.382;2022-10-16T05:15:52;4.66;;;4.66;;
73154;SDS011;61364;52.418;7.382;2022-10-16T05:18:18;4.07;;;4.07;;
73154;SDS011;61364;52.418;7.382;2022-10-16T05:20:43;3.58;;;3.58;;
73154;SDS011;61364;52.418;7.382;2022-10-16T05:23:09;3.43;;;3.43;;
73154;SDS011;61364;52.418;7.382;2022-10-16T05:25:37;3.50;;;3.50;;
73154;SDS011;61364;52.418;7.382;2022-10-16T05:28:03;3.39;;;3.39;;
73154;SDS011;61364;52.418;7.382;2022-10-16T05:30:29;3.44;;;3.44;;
73154;SDS011;61364;52.418;7.382;2022-10-16T05:32:55;3.17;;;3.17;;
73154;SDS011;61364;52.418;7.382;2022-10-16T05:35:20;3.12;;;3.12;;
73154;SDS011;61364;52.418;7.382;2022-10-16T05:37:46;3.14;;;3.14;;
73154;SDS011;61364;52.418;7.382;2022-10-16T05:40:13;3.34;;;3.34;;
73154;SDS011;61364;52.418;7.382;2022-10-16T05:42:39;3.08;;;3.08;;
73154;SDS011;61364;52.418;7.382;2022-10-16T05:45:06;3.22;;;3.22;;
73154;SDS011;61364;52.418;7.382;2022-10-16T05:47:32;3.40;;;3.40;;
73154;SDS011;61364;52.418;7.382;2022-10-16T05:49:58;3.01;;;3.01;;
73154;SDS011;61364;52.418;7.382;2022-10-16T05:52:23;3.27;;;3.27;;
73154;SDS011;61364;52.418;7.382;2022-10-16T05:54:49;3.16;;;3.16;;
73154;SDS011;61364;52.418;7.382;2022-10-16T05:57:15;3.47;;;3.47;;
73154;SDS011;61364;52.418;7.382;2022-10-16T05:59:41;3.76;;;3.76;;
73154;SDS011;61364;52.418;7.382;2022-10-16T06:02:08;4.87;;;4.87;;
73154;SDS011;61364;52.418;7.382;2022-10-16T06:04:37;5.46;;;5.46;;
73154;SDS011;61364;52.418;7.382;2022-10-16T06:07:02;5.26;;;5.26;;
73154;SDS011;61364;52.418;7.382;2022-10-16T06:09:28;4.89;;;4.89;;
73154;SDS011;61364;52.418;7.382;2022-10-16T06:11:53;4.40;;;4.40;;
73154;SDS011;61364;52.418;7.382;2022-10-16T06:14:19;4.47;;;4.47;;
73154;SDS011;61364;52.418;7.382;2022-10-16T06:16:44;3.78;;;3.78;;
73154;SDS011;61364;52.418;7.382;2022-10-16T06:19:10;3.57;;;3.57;;
73154;SDS011;61364;52.418;7.382;2022-10-16T06:21:35;3.44;;;3.44;;
73154;SDS011;61364;52.418;7.382;2022-10-16T06:24:00;3.33;;;3.33;;
73154;SDS011;61364;52.418;7.382;2022-10-16T06:26:27;3.18;;;3.18;;
73154;SDS011;61364;52.418;7.382;2022-10-16T06:28:54;3.66;;;3.66;;
73154;SDS011;61364;52.418;7.382;2022-10-16T06:31:20;3.17;;;3.17;;
73154;SDS011;61364;52.418;7.382;2022-10-16T06:33:49;2.80;;;2.80;;
73154;SDS011;61364;52.418;7.382;2022-10-16T06:36:16;3.10;;;3.10;;
73154;SDS011;61364;52.418;7.382;2022-10-16T06:38:42;2.74;;;2.74;;
73154;SDS011;61364;52.418;7.382;2022-10-16T06:41:09;2.87;;;2.87;;
73154;SDS011;61364;52.418;7.382;2022-10-16T06:43:36;3.17;;;3.17;;
73154;SDS011;61364;52.418;7.382;2022-10-16T06:46:02;3.26;;;3.26;;
73154;SDS011;61364;52.418;7.382;2022-10-16T06:48:29;3.34;;;3.34;;
73154;SDS011;61364;52.418;7.382;2022-10-16T06:50:56;3.56;;;3.56;;
73154;SDS011;61364;52.418;7.382;2022-10-16T06:53:22;4.43;;;4.43;;
73154;SDS011;61364;52.418;7.382;2022-10-16T06:55:48;6.24;;;6.24;;
73154;SDS011;61364;52.418;7.382;2022-10-16T06:58:13;6.74;;;6.74;;
73154;SDS011;61364;52.418;7.382;2022-10-16T07:00:39;5.36;;;5.36;;
73154;SDS011;61364;52.418;7.382;2022-10-16T07:03:04;5.39;;;5.39;;
73154;SDS011;61364;52.418;7.382;2022-10-16T07:05:30;5.12;;;5.12;;
73154;SDS011;61364;52.418;7.382;2022-10-16T07:07:56;4.40;;;4.40;;
73154;SDS011;61364;52.418;7.382;2022-10-16T07:10:21;3.77;;;3.77;;
73154;SDS011;61364;52.418;7.382;2022-10-16T07:12:49;3.24;;;3.24;;
73154;SDS011;61364;52.418;7.382;2022-10-16T07:15:15;3.41;;;3.41;;
73154;SDS011;61364;52.418;7.382;2022-10-16T07:17:41;5.97;;;5.97;;
73154;SDS011;61364;52.418;7.382;2022-10-16T07:20:06;5.45;;;5.45;;
73154;SDS011;61364;52.418;7.382;2022-10-16T07:22:32;4.10;;;4.10;;
73154;SDS011;61364;52.418;7.382;2022-10-16T07:24:58;4.15;;;4.15;;
73154;SDS011;61364;52.418;7.382;2022-10-16T07:27:24;3.38;;;3.38;;
73154;SDS011;61364;52.418;7.382;2022-10-16T07:29:49;2.73;;;2.73;;
73154;SDS011;61364;52.418;7.382;2022-10-16T07:32:15;3.49;;;3.49;;
73154;SDS011;61364;52.418;7.382;2022-10-16T07:34:41;2.97;;;2.97;;
73154;SDS011;61364;52.418;7.382;2022-10-16T07:37:07;2.86;;;2.86;;
73154;SDS011;61364;52.418;7.382;2022-10-16T07:39:33;4.18;;;4.18;;
73154;SDS011;61364;52.418;7.382;2022-10-16T07:41:59;4.96;;;4.96;;
73154;SDS011;61364;52.418;7.382;2022-10-16T07:44:25;3.80;;;3.80;;
73154;SDS011;61364;52.418;7.382;2022-10-16T07:46:50;3.16;;;3.16;;
73154;SDS011;61364;52.418;7.382;2022-10-16T07:49:16;2.68;;;2.68;;
73154;SDS011;61364;52.418;7.382;2022-10-16T07:51:41;2.79;;;2.79;;
73154;SDS011;61364;52.418;7.382;2022-10-16T07:54:08;2.70;;;2.70;;
73154;SDS011;61364;52.418;7.382;2022-10-16T07:56:35;2.58;;;2.58;;
73154;SDS011;61364;52.418;7.382;2022-10-16T07:59:00;2.57;;;2.57;;
73154;SDS011;61364;52.418;7.382;2022-10-16T08:01:26;2.52;;;2.52;;
73154;SDS011;61364;52.418;7.382;2022-10-16T08:03:52;2.46;;;2.46;;
73154;SDS011;61364;52.418;7.382;2022-10-16T08:06:18;2.72;;;2.72;;
73154;SDS011;61364;52.418;7.382;2022-10-16T08:08:46;2.70;;;2.70;;
73154;SDS011;61364;52.418;7.382;2022-10-16T08:11:13;2.52;;;2.52;;
73154;SDS011;61364;52.418;7.382;2022-10-16T08:13:40;2.36;;;2.36;;
73154;SDS011;61364;52.418;7.382;2022-10-16T08:16:07;2.38;;;2.38;;
73154;SDS011;61364;52.418;7.382;2022-10-16T08:18:35;2.07;;;2.07;;
73154;SDS011;61364;52.418;7.382;2022-10-16T08:21:02;2.22;;;2.22;;
73154;SDS011;61364;52.418;7.382;2022-10-16T08:23:30;2.25;;;2.25;;
73154;SDS011;61364;52.418;7.382;2022-10-16T08:25:56;2.26;;;2.26;;
73154;SDS011;61364;52.418;7.382;2022-10-16T08:28:28;6.47;;;6.47;;
73154;SDS011;61364;52.418;7.382;2022-10-16T08:30:54;7.32;;;7.32;;
73154;SDS011;61364;52.418;7.382;2022-10-16T08:33:21;20.89;;;20.89;;
73154;SDS011;61364;52.418;7.382;2022-10-16T08:35:53;24.99;;;24.99;;
73154;SDS011;61364;52.418;7.382;2022-10-16T08:38:19;34.02;;;34.00;;
73154;SDS011;61364;52.418;7.382;2022-10-16T08:40:46;45.23;;;45.15;;
73154;SDS011;61364;52.418;7.382;2022-10-16T08:45:58;22.93;;;22.93;;
73154;SDS011;61364;52.418;7.382;2022-10-16T08:50:57;11.47;;;11.47;;
73154;SDS011;61364;52.418;7.382;2022-10-16T08:53:28;7.82;;;7.82;;
73154;SDS011;61364;52.418;7.382;2022-10-16T08:55:56;6.97;;;6.97;;
73154;SDS011;61364;52.418;7.382;2022-10-16T08:58:27;10.69;;;10.69;;
73154;SDS011;61364;52.418;7.382;2022-10-16T09:00:56;8.13;;;8.13;;
73154;SDS011;61364;52.418;7.382;2022-10-16T09:06:09;4.03;;;4.03;;
73154;SDS011;61364;52.418;7.382;2022-10-16T09:13:58;4.71;;;4.71;;
73154;SDS011;61364;52.418;7.382;2022-10-16T09:16:36;5.12;;;5.12;;
73154;SDS011;61364;52.418;7.382;2022-10-16T09:21:29;5.89;;;5.89;;
73154;SDS011;61364;52.418;7.382;2022-10-16T09:24:00;4.78;;;4.78;;
73154;SDS011;61364;52.418;7.382;2022-10-16T09:26:34;4.02;;;4.02;;
73154;SDS011;61364;52.418;7.382;2022-10-16T09:29:00;3.91;;;3.91;;
73154;SDS011;61364;52.418;7.382;2022-10-16T09:31:25;3.50;;;3.50;;
73154;SDS011;61364;52.418;7.382;2022-10-16T09:33:55;3.88;;;3.88;;
73154;SDS011;61364;52.418;7.382;2022-10-16T09:36:23;10.64;;;10.64;;
73154;SDS011;61364;52.418;7.382;2022-10-16T09:39:01;28.72;;;28.50;;
73154;SDS011;61364;52.418;7.382;2022-10-16T09:41:27;40.66;;;40.53;;
73154;SDS011;61364;52.418;7.382;2022-10-16T09:43:57;32.10;;;32.09;;
73154;SDS011;61364;52.418;7.382;2022-10-16T09:46:26;16.47;;;16.47;;
73154;SDS011;61364;52.418;7.382;2022-10-16T09:48:57;29.27;;;29.02;;
73154;SDS011;61364;52.418;7.382;2022-10-16T09:53:53;10.71;;;10.68;;
73154;SDS011;61364;52.418;7.382;2022-10-16T09:56:23;9.39;;;9.32;;
73154;SDS011;61364;52.418;7.382;2022-10-16T09:58:51;10.26;;;10.26;;
73154;SDS011;61364;52.418;7.382;2022-10-16T10:01:17;6.73;;;6.73;;
73154;SDS011;61364;52.418;7.382;2022-10-16T10:03:45;11.59;;;11.59;;
73154;SDS011;61364;52.418;7.382;2022-10-16T10:08:51;6.63;;;6.63;;
73154;SDS011;61364;52.418;7.382;2022-10-16T10:11:18;6.07;;;6.07;;
73154;SDS011;61364;52.418;7.382;2022-10-16T10:13:43;9.35;;;9.35;;
73154;SDS011;61364;52.418;7.382;2022-10-16T10:16:09;6.43;;;6.43;;
73154;SDS011;61364;52.418;7.382;2022-10-16T10:18:34;6.83;;;6.83;;
73154;SDS011;61364;52.418;7.382;2022-10-16T10:21:00;6.08;;;6.08;;
73154;SDS011;61364;52.418;7.382;2022-10-16T10:23:28;6.96;;;6.96;;
73154;SDS011;61364;52.418;7.382;2022-10-16T10:38:47;2.54;;;2.54;;
73154;SDS011;61364;52.418;7.382;2022-10-16T10:46:20;4.10;;;4.10;;
73154;SDS011;61364;52.418;7.382;2022-10-16T10:56:47;2.44;;;2.44;;
73154;SDS011;61364;52.418;7.382;2022-10-16T11:02:04;3.82;;;3.82;;
73154;SDS011;61364;52.418;7.382;2022-10-16T11:07:10;4.37;;;4.37;;
73154;SDS011;61364;52.418;7.382;2022-10-16T11:09:41;4.28;;;4.28;;
73154;SDS011;61364;52.418;7.382;2022-10-16T11:17:13;6.72;;;6.65;;
73154;SDS011;61364;52.418;7.382;2022-10-16T11:25:16;6.02;;;5.72;;
73154;SDS011;61364;52.418;7.382;2022-10-16T11:28:02;7.13;;;6.88;;
73154;SDS011;61364;52.418;7.382;2022-10-16T11:30:26;7.66;;;7.20;;
73154;SDS011;61364;52.418;7.382;2022-10-16T11:35:25;7.75;;;7.50;;
73154;SDS011;61364;52.418;7.382;2022-10-16T11:37:57;6.12;;;6.01;;
73154;SDS011;61364;52.418;7.382;2022-10-16T11:40:30;4.79;;;4.69;;
73154;SDS011;61364;52.418;7.382;2022-10-16T11:43:17;4.63;;;4.54;;
73154;SDS011;61364;52.418;7.382;2022-10-16T11:45:51;5.34;;;5.26;;
73154;SDS011;61364;52.418;7.382;2022-10-16T11:48:32;7.75;;;7.52;;
73154;SDS011;61364;52.418;7.382;2022-10-16T11:51:09;7.37;;;6.97;;
73154;SDS011;61364;52.418;7.382;2022-10-16T11:56:25;10.21;;;9.52;;
73154;SDS011;61364;52.418;7.382;2022-10-16T11:58:53;9.78;;;9.24;;
73154;SDS011;61364;52.418;7.382;2022-10-16T12:06:40;13.29;;;12.61;;
73154;SDS011;61364;52.418;7.382;2022-10-16T12:09:42;8.20;;;7.93;;
73154;SDS011;61364;52.418;7.382;2022-10-16T12:12:01;5.92;;;5.83;;
73154;SDS011;61364;52.418;7.382;2022-10-16T12:19:18;4.21;;;4.20;;
73154;SDS011;61364;52.418;7.382;2022-10-16T12:21:44;3.70;;;3.69;;
73154;SDS011;61364;52.418;7.382;2022-10-16T12:26:48;2.60;;;2.56;;
73154;SDS011;61364;52.418;7.382;2022-10-16T12:29:23;2.61;;;2.55;;
73154;SDS011;61364;52.418;7.382;2022-10-16T12:31:54;3.43;;;3.35;;
73154;SDS011;61364;52.418;7.382;2022-10-16T12:34:21;7.91;;;7.50;;
73154;SDS011;61364;52.418;7.382;2022-10-16T12:36:51;5.21;;;4.79;;
73154;SDS011;61364;52.418;7.382;2022-10-16T12:39:27;7.39;;;6.76;;
73154;SDS011;61364;52.418;7.382;2022-10-16T12:44:37;9.09;;;8.07;;
73154;SDS011;61364;52.418;7.382;2022-10-16T12:47:03;10.09;;;8.77;;
73154;SDS011;61364;52.418;7.382;2022-10-16T12:49:29;8.94;;;7.96;;
73154;SDS011;61364;52.418;7.382;2022-10-16T12:51:57;8.41;;;7.30;;
73154;SDS011;61364;52.418;7.382;2022-10-16T12:54:36;8.96;;;7.73;;
73154;SDS011;61364;52.418;7.382;2022-10-16T12:57:19;10.77;;;9.40;;
73154;SDS011;61364;52.418;7.382;2022-10-16T12:59:54;10.47;;;9.19;;
73154;SDS011;61364;52.418;7.382;2022-10-16T13:05:15;5.95;;;5.34;;
73154;SDS011;61364;52.418;7.382;2022-10-16T13:23:15;5.71;;;4.66;;
73154;SDS011;61364;52.418;7.382;2022-10-16T13:25:48;7.96;;;6.24;;
73154;SDS011;61364;52.418;7.382;2022-10-16T13:28:21;5.69;;;4.44;;
73154;SDS011;61364;52.418;7.382;2022-10-16T13:30:56;6.85;;;5.48;;
73154;SDS011;61364;52.418;7.382;2022-10-16T13:36:01;8.49;;;7.14;;
73154;SDS011;61364;52.418;7.382;2022-10-16T13:38:29;8.91;;;7.35;;
73154;SDS011;61364;52.418;7.382;2022-10-16T13:41:01;4.90;;;4.20;;
73154;SDS011;61364;52.418;7.382;2022-10-16T13:45:54;3.47;;;2.96;;
73154;SDS011;61364;52.418;7.382;2022-10-16T13:48:20;6.18;;;5.20;;
73154;SDS011;61364;52.418;7.382;2022-10-16T13:50:45;6.12;;;5.22;;
73154;SDS011;61364;52.418;7.382;2022-10-16T13:53:12;6.59;;;5.61;;
73154;SDS011;61364;52.418;7.382;2022-10-16T13:55:39;7.38;;;6.01;;
73154;SDS011;61364;52.418;7.382;2022-10-16T13:58:07;5.71;;;4.78;;
73154;SDS011;61364;52.418;7.382;2022-10-16T14:00:33;4.25;;;3.78;;
73154;SDS011;61364;52.418;7.382;2022-10-16T14:03:02;4.31;;;3.98;;
73154;SDS011;61364;52.418;7.382;2022-10-16T14:05:29;5.14;;;4.78;;
73154;SDS011;61364;52.418;7.382;2022-10-16T14:07:55;5.55;;;5.17;;
73154;SDS011;61364;52.418;7.382;2022-10-16T14:10:26;6.13;;;5.74;;
73154;SDS011;61364;52.418;7.382;2022-10-16T14:12:59;6.05;;;5.64;;
73154;SDS011;61364;52.418;7.382;2022-10-16T14:15:26;5.76;;;5.30;;
73154;SDS011;61364;52.418;7.382;2022-10-16T14:17:52;5.66;;;5.18;;
73154;SDS011;61364;52.418;7.382;2022-10-16T14:20:19;5.86;;;5.18;;
73154;SDS011;61364;52.418;7.382;2022-10-16T14:22:47;5.50;;;4.92;;
73154;SDS011;61364;52.418;7.382;2022-10-16T14:25:27;4.63;;;4.16;;
73154;SDS011;61364;52.418;7.382;2022-10-16T14:30:26;3.68;;;3.34;;
73154;SDS011;61364;52.418;7.382;2022-10-16T14:32:53;3.35;;;3.06;;
73154;SDS011;61364;52.418;7.382;2022-10-16T14:35:38;3.33;;;3.11;;
73154;SDS011;61364;52.418;7.382;2022-10-16T14:38:05;2.78;;;2.58;;
73154;SDS011;61364;52.418;7.382;2022-10-16T14:40:46;3.21;;;2.96;;
73154;SDS011;61364;52.418;7.382;2022-10-16T14:43:26;4.52;;;4.29;;
73154;SDS011;61364;52.418;7.382;2022-10-16T14:45:57;4.74;;;4.65;;
73154;SDS011;61364;52.418;7.382;2022-10-16T14:48:23;3.69;;;3.68;;
73154;SDS011;61364;52.418;7.382;2022-10-16T14:50:49;3.35;;;3.34;;
73154;SDS011;61364;52.418;7.382;2022-10-16T14:53:15;3.10;;;3.09;;
73154;SDS011;61364;52.418;7.382;2022-10-16T14:55:41;2.70;;;2.70;;
73154;SDS011;61364;52.418;7.382;2022-10-16T14:58:10;2.41;;;2.41;;
73154;SDS011;61364;52.418;7.382;2022-10-16T15:00:40;2.35;;;2.30;;
73154;SDS011;61364;52.418;7.382;2022-10-16T15:03:05;2.59;;;2.43;;
73154;SDS011;61364;52.418;7.382;2022-10-16T15:05:31;2.59;;;2.40;;
73154;SDS011;61364;52.418;7.382;2022-10-16T15:07:57;2.87;;;2.63;;
73154;SDS011;61364;52.418;7.382;2022-10-16T15:10:23;3.11;;;2.90;;
73154;SDS011;61364;52.418;7.382;2022-10-16T15:12:51;2.37;;;2.35;;
73154;SDS011;61364;52.418;7.382;2022-10-16T15:17:52;2.77;;;2.60;;
73154;SDS011;61364;52.418;7.382;2022-10-16T15:20:21;2.62;;;2.43;;
73154;SDS011;61364;52.418;7.382;2022-10-16T15:22:47;2.63;;;2.42;;
73154;SDS011;61364;52.418;7.382;2022-10-16T15:25:24;2.76;;;2.52;;
73154;SDS011;61364;52.418;7.382;2022-10-16T15:27:53;2.84;;;2.55;;
73154;SDS011;61364;52.418;7.382;2022-10-16T15:30:18;3.32;;;3.02;;
73154;SDS011;61364;52.418;7.382;2022-10-16T15:32:44;3.27;;;3.00;;
73154;SDS011;61364;52.418;7.382;2022-10-16T15:35:10;3.26;;;3.09;;
73154;SDS011;61364;52.418;7.382;2022-10-16T15:37:35;3.14;;;3.10;;
73154;SDS011;61364;52.418;7.382;2022-10-16T15:40:01;3.31;;;3.20;;
73154;SDS011;61364;52.418;7.382;2022-10-16T15:42:29;3.25;;;3.13;;
73154;SDS011;61364;52.418;7.382;2022-10-16T15:44:55;3.80;;;3.65;;
73154;SDS011;61364;52.418;7.382;2022-10-16T15:47:20;3.32;;;3.20;;
73154;SDS011;61364;52.418;7.382;2022-10-16T15:49:46;3.46;;;3.35;;
73154;SDS011;61364;52.418;7.382;2022-10-16T15:52:11;5.45;;;5.20;;
73154;SDS011;61364;52.418;7.382;2022-10-16T15:54:37;6.03;;;5.71;;
73154;SDS011;61364;52.418;7.382;2022-10-16T15:57:02;8.44;;;7.86;;
73154;SDS011;61364;52.418;7.382;2022-10-16T15:59:28;8.34;;;7.78;;
73154;SDS011;61364;52.418;7.382;2022-10-16T16:01:53;8.67;;;8.15;;
73154;SDS011;61364;52.418;7.382;2022-10-16T16:04:19;9.25;;;8.57;;
73154;SDS011;61364;52.418;7.382;2022-10-16T16:06:44;9.28;;;8.77;;
73154;SDS011;61364;52.418;7.382;2022-10-16T16:09:11;9.29;;;9.05;;
73154;SDS011;61364;52.418;7.382;2022-10-16T16:11:37;8.85;;;8.78;;
73154;SDS011;61364;52.418;7.382;2022-10-16T16:14:07;8.25;;;8.22;;
73154;SDS011;61364;52.418;7.382;2022-10-16T16:16:32;7.56;;;7.50;;
73154;SDS011;61364;52.418;7.382;2022-10-16T16:19:04;5.37;;;5.33;;
73154;SDS011;61364;52.418;7.382;2022-10-16T16:21:31;4.14;;;4.14;;
73154;SDS011;61364;52.418;7.382;2022-10-16T16:23:57;3.97;;;3.94;;
73154;SDS011;61364;52.418;7.382;2022-10-16T16:26:29;3.56;;;3.53;;
73154;SDS011;61364;52.418;7.382;2022-10-16T16:29:02;3.25;;;3.22;;
73154;SDS011;61364;52.418;7.382;2022-10-16T16:31:29;3.14;;;3.05;;
73154;SDS011;61364;52.418;7.382;2022-10-16T16:33:56;3.29;;;3.19;;
73154;SDS011;61364;52.418;7.382;2022-10-16T16:36:22;3.40;;;3.29;;
73154;SDS011;61364;52.418;7.382;2022-10-16T16:38:48;3.18;;;3.14;;
73154;SDS011;61364;52.418;7.382;2022-10-16T16:41:14;3.33;;;3.24;;
73154;SDS011;61364;52.418;7.382;2022-10-16T16:43:40;3.66;;;3.60;;
73154;SDS011;61364;52.418;7.382;2022-10-16T16:46:06;3.69;;;3.54;;
73154;SDS011;61364;52.418;7.382;2022-10-16T16:48:32;3.25;;;3.13;;
73154;SDS011;61364;52.418;7.382;2022-10-16T16:51:04;2.60;;;2.57;;
73154;SDS011;61364;52.418;7.382;2022-10-16T16:53:33;2.97;;;2.94;;
73154;SDS011;61364;52.418;7.382;2022-10-16T16:56:03;2.92;;;2.83;;